createdAt,value
2022-10-13T01:03:36.541Z,53.92
2022-10-13T01:06:05.798Z,56.72
2022-10-13T01:08:34.623Z,62.00
2022-10-13T01:11:04.698Z,54.55
2022-10-13T01:13:48.116Z,53.58
2022-10-13T01:17:03.350Z,50.95
2022-10-13T01:20:23.264Z,49.95
2022-10-13T01:23:45.606Z,50.80
2022-10-13T01:26:18.549Z,50.22
2022-10-13T01:29:13.082Z,46.03
2022-10-13T01:32:18.168Z,48.65
2022-10-13T01:35:15.346Z,50.28
2022-10-13T01:37:56.476Z,43.80
2022-10-13T01:40:38.851Z,56.40
2022-10-13T01:43:25.219Z,46.63
2022-10-13T01:46:17.725Z,47.42
2022-10-13T01:48:47.894Z,49.40
2022-10-13T01:51:19.831Z,50.92
2022-10-13T01:53:49.170Z,51.97
2022-10-13T01:56:16.497Z,48.05
2022-10-13T01:58:45.692Z,46.85
2022-10-13T02:01:36.240Z,48.72
2022-10-13T02:04:26.052Z,53.35
2022-10-13T02:07:25.152Z,46.80
2022-10-13T02:10:09.616Z,43.55
2022-10-13T02:12:49.961Z,45.33
2022-10-13T02:15:24.649Z,49.75
2022-10-13T02:17:53.342Z,48.50
2022-10-13T02:20:22.217Z,47.00
2022-10-13T02:22:58.874Z,43.50
2022-10-13T02:25:27.679Z,49.03
2022-10-13T02:27:58.062Z,50.42
2022-10-13T02:30:30.072Z,52.17
2022-10-13T02:32:57.449Z,49.10
2022-10-13T02:35:24.709Z,53.63
2022-10-13T02:37:52.177Z,55.70
2022-10-13T02:40:20.003Z,54.20
2022-10-13T02:42:47.266Z,50.97
2022-10-13T02:45:15.269Z,54.35
2022-10-13T02:47:42.600Z,57.95
2022-10-13T02:50:10.452Z,56.50
2022-10-13T02:52:38.126Z,53.58
2022-10-13T02:55:06.672Z,45.00
2022-10-13T02:57:35.434Z,48.92
2022-10-13T03:00:02.764Z,44.83
2022-10-13T03:02:30.003Z,48.78
2022-10-13T03:04:57.253Z,50.38
2022-10-13T03:07:24.570Z,48.65
2022-10-13T03:09:52.047Z,43.58
2022-10-13T03:12:19.634Z,57.38
2022-10-13T03:14:47.148Z,50.50
2022-10-13T03:17:14.431Z,48.78
2022-10-13T03:19:41.706Z,44.85
2022-10-13T03:22:09.247Z,47.53
2022-10-13T03:24:36.561Z,51.97
2022-10-13T03:27:03.993Z,50.50
2022-10-13T03:29:31.460Z,42.15
2022-10-13T03:31:58.753Z,43.05
2022-10-13T03:34:26.110Z,40.40
2022-10-13T03:36:53.397Z,41.15
2022-10-13T03:39:20.617Z,44.55
2022-10-13T03:41:47.883Z,38.08
2022-10-13T03:44:15.588Z,40.85
2022-10-13T03:46:43.099Z,48.45
2022-10-13T03:49:11.895Z,43.75
2022-10-13T03:51:39.622Z,44.13
2022-10-13T03:54:06.993Z,43.55
2022-10-13T03:56:34.187Z,44.83
2022-10-13T03:59:01.836Z,48.72
2022-10-13T04:01:30.886Z,48.00
2022-10-13T04:04:00.170Z,48.67
2022-10-13T04:06:28.056Z,46.40
2022-10-13T04:08:55.900Z,54.63
2022-10-13T04:11:23.196Z,50.00
2022-10-13T04:13:50.873Z,47.83
2022-10-13T04:16:25.962Z,47.08
2022-10-13T04:19:00.843Z,45.95
2022-10-13T04:21:30.403Z,52.33
2022-10-13T04:23:59.823Z,44.80
2022-10-13T04:26:31.267Z,49.80
2022-10-13T04:28:59.823Z,49.83
2022-10-13T04:33:57.126Z,42.72
2022-10-13T04:36:25.048Z,47.75
2022-10-13T04:38:54.046Z,50.17
2022-10-13T04:41:22.505Z,49.58
2022-10-13T04:46:22.709Z,44.33
2022-10-13T04:48:50.831Z,43.47
2022-10-13T04:51:22.516Z,53.22
2022-10-13T04:53:57.275Z,52.60
2022-10-13T04:56:26.029Z,45.85
2022-10-13T05:01:25.124Z,46.53
2022-10-13T05:04:00.966Z,42.63
2022-10-13T05:06:35.326Z,40.28
2022-10-13T05:09:04.033Z,55.17
2022-10-13T05:11:32.362Z,46.10
2022-10-13T05:14:01.251Z,45.45
2022-10-13T05:16:29.429Z,49.00
2022-10-13T05:18:56.930Z,70.90
2022-10-13T05:21:28.790Z,45.38
2022-10-13T05:23:57.535Z,51.58
2022-10-13T05:26:29.241Z,49.65
2022-10-13T05:29:02.501Z,51.42
2022-10-13T05:31:32.758Z,45.03
2022-10-13T05:34:01.286Z,50.40
2022-10-13T05:36:35.207Z,46.90
2022-10-13T05:39:08.789Z,51.53
2022-10-13T05:41:36.192Z,47.90
2022-10-13T05:44:08.632Z,53.72
2022-10-13T05:46:36.921Z,48.50
2022-10-13T05:49:04.865Z,45.63
2022-10-13T05:51:41.965Z,57.25
2022-10-13T05:54:44.357Z,43.33
2022-10-13T05:57:22.630Z,50.35
2022-10-13T06:00:00.720Z,49.15
2022-10-13T06:02:38.168Z,51.75
2022-10-13T06:05:12.597Z,46.57
2022-10-13T06:07:39.896Z,59.50
2022-10-13T06:10:07.526Z,57.13
2022-10-13T06:12:34.902Z,51.38
2022-10-13T06:15:02.087Z,48.15
2022-10-13T06:17:29.549Z,42.03
2022-10-13T06:19:59.565Z,46.63
2022-10-13T06:22:29.240Z,53.20
2022-10-13T06:24:59.774Z,43.08
2022-10-13T06:27:27.869Z,37.92
2022-10-13T06:29:55.849Z,40.03
2022-10-13T06:32:23.611Z,40.15
2022-10-13T06:34:51.423Z,42.43
2022-10-13T06:37:21.223Z,42.60
2022-10-13T06:39:52.189Z,41.30
2022-10-13T06:42:19.788Z,43.00
2022-10-13T06:44:47.342Z,37.50
2022-10-13T06:47:14.848Z,40.35
2022-10-13T06:49:42.218Z,46.42
2022-10-13T06:52:10.638Z,41.53
2022-10-13T06:54:38.061Z,38.47
2022-10-13T06:57:08.535Z,37.50
2022-10-13T06:59:35.896Z,41.13
2022-10-13T07:02:03.245Z,49.65
2022-10-13T07:04:30.503Z,40.60
2022-10-13T07:06:58.133Z,40.75
2022-10-13T07:09:25.694Z,46.63
2022-10-13T07:11:53.036Z,38.53
2022-10-13T07:14:20.387Z,41.33
2022-10-13T07:16:50.694Z,43.30
2022-10-13T07:19:18.011Z,41.22
2022-10-13T07:21:45.284Z,38.60
2022-10-13T07:24:13.108Z,34.15
2022-10-13T07:26:40.493Z,39.83
2022-10-13T07:29:08.830Z,36.15
2022-10-13T07:31:36.233Z,40.03
2022-10-13T07:34:05.097Z,37.92
2022-10-13T07:36:33.750Z,38.63
2022-10-13T07:39:03.338Z,36.80
2022-10-13T07:41:30.747Z,41.95
2022-10-13T07:43:58.897Z,40.47
2022-10-13T07:46:26.708Z,40.13
2022-10-13T07:48:54.992Z,37.40
2022-10-13T07:51:23.622Z,40.33
2022-10-13T07:53:51.262Z,38.28
2022-10-13T07:56:18.573Z,39.67
2022-10-13T07:58:47.635Z,33.65
2022-10-13T08:01:16.655Z,38.72
2022-10-13T08:03:49.805Z,36.28
2022-10-13T08:06:18.897Z,42.30
2022-10-13T08:08:46.285Z,40.20
2022-10-13T08:11:17.023Z,33.28
2022-10-13T08:13:50.907Z,39.38
2022-10-13T08:16:19.084Z,38.92
2022-10-13T08:18:46.935Z,32.88
2022-10-13T08:21:56.766Z,36.70
2022-10-13T08:24:09.103Z,37.63
2022-10-13T08:26:36.359Z,38.53
2022-10-13T08:31:54.064Z,31.38
2022-10-13T08:34:24.016Z,32.65
2022-10-13T08:36:55.434Z,33.35
2022-10-13T08:39:24.368Z,38.83
2022-10-13T08:41:53.198Z,32.33
2022-10-13T08:48:07.638Z,37.70
2022-10-13T08:50:41.147Z,35.42
2022-10-13T08:53:41.230Z,38.38
2022-10-13T08:56:35.962Z,38.28
2022-10-13T08:59:05.117Z,35.55
2022-10-13T09:01:36.239Z,32.55
2022-10-13T09:04:39.295Z,36.15
2022-10-13T09:46:26.590Z,39.92
2022-10-13T09:49:08.283Z,46.88
2022-10-13T09:51:40.138Z,50.90
2022-10-13T09:54:29.006Z,50.28
2022-10-13T09:57:37.656Z,53.42
2022-10-13T10:00:27.156Z,47.28
2022-10-13T10:03:29.445Z,49.10
2022-10-13T10:06:00.734Z,40.35
2022-10-13T10:09:02.704Z,50.55
2022-10-13T10:11:40.152Z,39.75
2022-10-13T10:14:37.143Z,46.50
2022-10-13T10:17:32.629Z,41.40
2022-10-13T10:20:18.644Z,49.28
2022-10-13T10:23:04.099Z,42.53
2022-10-13T10:25:42.040Z,44.42
2022-10-13T10:28:15.181Z,50.80
2022-10-13T10:55:53.177Z,42.10
2022-10-13T10:58:42.260Z,33.40
2022-10-13T11:01:12.521Z,38.90
2022-10-13T11:03:59.678Z,39.20
2022-10-13T11:06:38.330Z,34.60
2022-10-13T11:09:06.614Z,35.35
2022-10-13T11:11:38.349Z,33.08
2022-10-13T11:14:05.547Z,36.45
2022-10-13T11:16:41.678Z,36.88
2022-10-13T11:19:08.994Z,33.53
2022-10-13T11:21:59.815Z,34.47
2022-10-13T11:25:29.537Z,38.00
2022-10-13T11:27:56.854Z,37.10
2022-10-13T11:30:51.677Z,34.15
2022-10-13T11:33:40.955Z,38.88
2022-10-13T11:36:32.783Z,36.22
2022-10-13T11:39:52.384Z,34.97
2022-10-13T11:43:05.078Z,35.70
2022-10-13T11:45:59.575Z,34.13
2022-10-13T11:48:55.966Z,36.95
2022-10-13T11:51:46.975Z,44.65
2022-10-13T11:54:39.974Z,41.80
2022-10-13T11:57:26.692Z,31.52
2022-10-13T11:59:57.008Z,31.98
2022-10-13T12:02:28.011Z,35.10
2022-10-13T12:05:25.938Z,33.63
2022-10-13T12:08:03.843Z,32.77
2022-10-13T12:10:38.137Z,30.17
2022-10-13T12:13:06.114Z,34.30
2022-10-13T12:16:03.351Z,29.42
2022-10-13T12:18:38.450Z,28.50
2022-10-13T12:21:14.933Z,29.40
2022-10-13T12:23:42.385Z,26.30
2022-10-13T12:26:18.071Z,31.73
2022-10-13T12:29:01.733Z,31.75
2022-10-13T12:31:43.535Z,33.53
2022-10-13T12:34:36.050Z,28.27
2022-10-13T12:37:15.163Z,29.17
2022-10-13T12:39:43.528Z,31.27
2022-10-13T12:42:14.778Z,28.30
2022-10-13T12:44:42.688Z,28.55
2022-10-13T12:47:45.137Z,30.17
2022-10-13T12:50:28.227Z,30.17
2022-10-13T12:53:28.592Z,29.58
2022-10-13T12:56:01.975Z,30.23
2022-10-13T12:58:34.024Z,30.08
2022-10-13T13:01:31.173Z,29.30
2022-10-13T13:04:16.725Z,26.33
2022-10-13T13:07:00.404Z,28.77
2022-10-13T13:09:34.252Z,28.38
2022-10-13T13:12:13.787Z,30.60
2022-10-13T13:14:51.057Z,27.65
2022-10-13T13:17:38.459Z,27.15
2022-10-13T13:20:32.124Z,31.02
2022-10-13T13:23:01.759Z,26.95
2022-10-13T13:25:29.098Z,29.70
2022-10-13T13:27:56.377Z,29.45
2022-10-13T13:30:24.815Z,27.85
2022-10-13T13:32:53.871Z,30.88
2022-10-13T13:35:21.216Z,27.45
2022-10-13T13:37:51.296Z,26.70
2022-10-13T13:40:26.274Z,31.17
2022-10-13T13:42:54.964Z,37.67
2022-10-13T13:45:25.530Z,31.08
2022-10-13T13:47:54.957Z,28.05
2022-10-13T13:50:33.236Z,23.75
2022-10-13T13:53:01.199Z,24.00
2022-10-13T13:55:30.556Z,23.15
2022-10-13T13:57:58.826Z,24.90
2022-10-13T14:00:26.560Z,25.85
2022-10-13T14:02:53.974Z,25.63
2022-10-13T14:05:21.360Z,26.80
2022-10-13T14:07:48.715Z,32.97
2022-10-13T14:10:16.117Z,26.37
2022-10-13T14:12:43.563Z,26.40
2022-10-13T14:15:11.152Z,27.20
2022-10-13T14:17:38.481Z,24.92
2022-10-13T14:20:06.660Z,39.88
2022-10-13T14:22:33.943Z,28.10
2022-10-13T14:25:01.258Z,22.73
2022-10-13T14:27:28.786Z,26.33
2022-10-13T14:29:56.082Z,27.48
2022-10-13T14:32:23.640Z,22.95
2022-10-13T14:34:53.594Z,21.20
2022-10-13T14:37:23.170Z,22.55
2022-10-13T14:39:51.154Z,22.80
2022-10-13T14:42:18.413Z,29.92
2022-10-13T14:44:46.523Z,24.98
2022-10-13T14:47:13.774Z,24.17
2022-10-13T14:49:40.973Z,25.02
2022-10-13T14:52:08.897Z,23.88
2022-10-13T14:54:39.044Z,23.63
2022-10-13T14:57:15.583Z,26.52
2022-10-13T14:59:44.334Z,26.80
2022-10-13T15:02:15.410Z,24.08
2022-10-13T15:04:42.771Z,26.52
2022-10-13T15:07:10.042Z,28.27
2022-10-13T15:09:52.810Z,32.27
2022-10-13T15:12:24.636Z,26.67
2022-10-13T15:14:51.931Z,25.55
2022-10-13T15:17:19.258Z,30.77
2022-10-13T15:19:48.590Z,27.58
2022-10-13T15:22:16.418Z,28.10
2022-10-13T15:24:43.743Z,21.93
2022-10-13T15:27:11.138Z,30.23
2022-10-13T15:29:38.489Z,25.30
2022-10-13T15:32:18.289Z,27.77
2022-10-13T15:34:46.436Z,28.10
2022-10-13T15:37:15.304Z,25.35
2022-10-13T15:39:42.612Z,28.63
2022-10-13T15:42:11.857Z,31.73
2022-10-13T15:44:57.742Z,29.90
2022-10-13T15:47:26.663Z,26.73
2022-10-13T15:49:54.603Z,27.17
2022-10-13T15:52:22.509Z,32.35
2022-10-13T15:54:51.723Z,30.02
2022-10-13T15:57:19.688Z,26.17
2022-10-13T15:59:46.990Z,29.98
2022-10-13T16:02:15.118Z,24.92
2022-10-13T16:04:43.692Z,26.27
2022-10-13T16:07:11.186Z,27.80
2022-10-13T16:09:39.752Z,25.08
2022-10-13T16:14:34.436Z,34.97
2022-10-13T16:17:01.793Z,30.17
2022-10-13T16:19:29.547Z,28.15
2022-10-13T16:21:56.973Z,30.52
2022-10-13T16:24:24.376Z,32.88
2022-10-13T16:26:51.664Z,36.83
2022-10-13T16:29:19.066Z,34.92
2022-10-13T16:31:48.795Z,32.20
2022-10-13T16:34:16.300Z,31.75
2022-10-13T16:36:43.803Z,40.45
2022-10-13T16:39:11.567Z,35.60
2022-10-13T16:41:38.930Z,48.05
2022-10-13T16:44:06.842Z,31.58
2022-10-13T16:46:34.138Z,30.63
2022-10-13T16:49:02.009Z,30.58
2022-10-13T16:51:29.697Z,32.15
2022-10-13T16:54:03.853Z,37.50
2022-10-13T16:56:32.703Z,43.20
2022-10-13T16:59:04.601Z,41.40
2022-10-13T17:01:34.044Z,36.30
2022-10-13T17:04:02.008Z,47.85
2022-10-13T17:06:30.207Z,36.65
2022-10-13T17:08:59.853Z,39.38
2022-10-13T17:13:59.370Z,43.55
2022-10-13T17:16:27.536Z,42.35
2022-10-13T17:18:56.144Z,45.58
2022-10-13T17:21:23.707Z,44.08
2022-10-13T17:23:51.274Z,44.35
2022-10-13T17:26:21.131Z,42.83
2022-10-13T17:28:48.906Z,49.30
2022-10-13T17:31:20.696Z,45.67
2022-10-13T17:33:48.983Z,51.97
2022-10-13T17:36:22.329Z,49.42
2022-10-13T17:38:50.979Z,50.60
2022-10-13T17:43:46.732Z,59.05
2022-10-13T17:46:41.849Z,54.78
2022-10-13T17:49:12.249Z,47.15
2022-10-13T17:51:42.287Z,54.08
2022-10-13T17:54:16.062Z,52.75
2022-10-13T17:56:45.634Z,54.35
2022-10-13T17:59:15.342Z,57.15
2022-10-13T18:01:43.668Z,49.35
2022-10-13T18:04:18.227Z,54.50
2022-10-13T18:06:46.014Z,52.90
2022-10-13T18:09:20.115Z,47.22
2022-10-13T18:11:51.198Z,51.80
2022-10-13T18:14:24.634Z,56.63
2022-10-13T18:16:53.591Z,51.05
2022-10-13T18:19:21.794Z,49.20
2022-10-13T18:21:49.922Z,46.00
2022-10-13T18:24:17.569Z,48.17
2022-10-13T18:26:46.964Z,51.35
2022-10-13T18:29:14.513Z,48.05
2022-10-13T18:31:42.285Z,54.38
2022-10-13T18:34:16.940Z,50.53
2022-10-13T18:36:52.148Z,47.63
2022-10-13T18:39:26.905Z,48.38
2022-10-13T18:41:56.591Z,52.00
2022-10-13T18:44:25.083Z,40.70
2022-10-13T18:49:31.254Z,51.72
2022-10-13T18:52:02.190Z,45.42
2022-10-13T18:54:30.260Z,54.53
2022-10-13T18:56:57.720Z,52.08
2022-10-13T18:59:25.019Z,59.63
2022-10-13T19:01:52.638Z,47.53
2022-10-13T19:04:23.628Z,51.90
2022-10-13T19:06:50.924Z,48.40
2022-10-13T19:09:18.276Z,44.22
2022-10-13T19:11:45.683Z,45.15
2022-10-13T19:14:15.454Z,46.70
2022-10-13T19:16:44.243Z,45.00
2022-10-13T19:19:12.348Z,48.28
2022-10-13T19:21:40.532Z,47.10
2022-10-13T19:24:08.622Z,45.92
2022-10-13T19:26:37.514Z,53.85
2022-10-13T19:29:09.916Z,54.58
2022-10-13T19:31:39.286Z,49.53
2022-10-13T19:34:06.695Z,48.53
2022-10-13T19:36:42.288Z,48.22
2022-10-13T19:39:24.016Z,47.45
2022-10-13T19:41:54.658Z,48.85
2022-10-13T19:44:24.634Z,48.10
2022-10-13T19:46:53.879Z,48.90
2022-10-13T19:49:26.490Z,45.53
2022-10-13T19:51:54.910Z,46.03
2022-10-13T19:54:23.806Z,48.95
2022-10-13T19:56:51.631Z,44.42
2022-10-13T19:59:19.560Z,48.40
2022-10-13T20:01:47.611Z,46.15
2022-10-13T20:04:18.656Z,47.38
2022-10-13T20:06:50.756Z,49.20
2022-10-13T20:09:19.400Z,42.92
2022-10-13T20:11:49.956Z,51.45
2022-10-13T20:14:18.612Z,48.90
2022-10-13T20:16:46.509Z,45.92
2022-10-13T20:19:19.447Z,43.58
2022-10-13T20:21:48.100Z,46.00
2022-10-13T20:24:16.518Z,48.10
2022-10-13T20:26:43.917Z,48.33
2022-10-13T20:29:12.222Z,42.73
2022-10-13T20:31:39.725Z,42.55
2022-10-13T20:34:07.583Z,46.83
2022-10-13T20:36:38.526Z,46.55
2022-10-13T20:39:08.277Z,44.65
2022-10-13T20:41:35.602Z,43.00
2022-10-13T20:44:03.367Z,43.05
2022-10-13T20:46:30.964Z,49.92
2022-10-13T20:49:10.464Z,45.93
2022-10-13T20:51:40.345Z,45.55
2022-10-13T20:54:07.996Z,48.22
2022-10-13T20:56:35.867Z,45.83
2022-10-13T20:59:11.198Z,42.75
2022-10-13T21:01:39.366Z,39.20
2022-10-13T21:04:07.320Z,44.78
2022-10-13T21:06:35.901Z,45.97
2022-10-13T21:11:33.902Z,52.22
2022-10-13T21:16:35.028Z,49.20
2022-10-13T21:19:02.895Z,41.78
2022-10-13T21:21:33.565Z,46.55
2022-10-13T21:24:05.389Z,47.20
2022-10-13T21:26:34.236Z,49.55
2022-10-13T21:29:01.830Z,43.33
2022-10-13T21:31:30.129Z,45.77
2022-10-13T21:33:58.221Z,45.72
2022-10-13T21:36:31.612Z,44.63
2022-10-13T21:39:05.961Z,42.45
2022-10-13T21:41:33.546Z,49.13
2022-10-13T21:44:00.924Z,48.63
2022-10-13T21:46:31.553Z,55.83
2022-10-13T21:49:02.244Z,53.88
2022-10-13T21:51:36.646Z,43.60
2022-10-13T21:54:11.328Z,46.72
2022-10-13T21:56:40.893Z,47.05
2022-10-13T21:59:10.192Z,50.88
2022-10-13T22:01:37.407Z,49.60
2022-10-13T22:04:06.361Z,49.55
